sensor_id;sensor_type;location;lat;lon;timestamp;P1;durP1;ratioP1;P2;durP2;ratioP2
1404;SDS011;697;51.114;6.542;2023-05-07T00:02:01;5.70;;;5.20;;
1404;SDS011;697;51.114;6.542;2023-05-07T00:04:28;7.57;;;5.50;;
1404;SDS011;697;51.114;6.542;2023-05-07T00:07:00;5.23;;;4.73;;
1404;SDS011;697;51.114;6.542;2023-05-07T00:09:27;6.90;;;5.40;;
1404;SDS011;697;51.114;6.542;2023-05-07T00:11:54;5.70;;;5.13;;
1404;SDS011;697;51.114;6.542;2023-05-07T00:14:21;6.70;;;5.73;;
1404;SDS011;697;51.114;6.542;2023-05-07T00:16:47;6.10;;;5.60;;
1404;SDS011;697;51.114;6.542;2023-05-07T00:19:15;6.40;;;5.87;;
1404;SDS011;697;51.114;6.542;2023-05-07T00:21:42;6.70;;;5.93;;
1404;SDS011;697;51.114;6.542;2023-05-07T00:24:08;6.10;;;5.50;;
1404;SDS011;697;51.114;6.542;2023-05-07T00:26:35;6.13;;;5.63;;
1404;SDS011;697;51.114;6.542;2023-05-07T00:29:02;6.47;;;5.87;;
1404;SDS011;697;51.114;6.542;2023-05-07T00:31:28;6.50;;;6.00;;
1404;SDS011;697;51.114;6.542;2023-05-07T00:33:55;6.03;;;5.30;;
1404;SDS011;697;51.114;6.542;2023-05-07T00:36:23;6.20;;;5.60;;
1404;SDS011;697;51.114;6.542;2023-05-07T00:38:51;6.00;;;5.40;;
1404;SDS011;697;51.114;6.542;2023-05-07T00:41:20;6.00;;;5.60;;
1404;SDS011;697;51.114;6.542;2023-05-07T00:43:47;5.20;;;4.70;;
1404;SDS011;697;51.114;6.542;2023-05-07T00:46:16;6.70;;;5.53;;
1404;SDS011;697;51.114;6.542;2023-05-07T00:48:43;6.70;;;6.10;;
1404;SDS011;697;51.114;6.542;2023-05-07T00:51:10;5.43;;;4.93;;
1404;SDS011;697;51.114;6.542;2023-05-07T00:53:38;5.70;;;5.13;;
1404;SDS011;697;51.114;6.542;2023-05-07T00:56:06;6.60;;;5.97;;
1404;SDS011;697;51.114;6.542;2023-05-07T00:58:32;6.53;;;5.87;;
1404;SDS011;697;51.114;6.542;2023-05-07T01:00:59;7.90;;;6.00;;
1404;SDS011;697;51.114;6.542;2023-05-07T01:03:26;7.43;;;5.60;;
1404;SDS011;697;51.114;6.542;2023-05-07T01:05:53;6.80;;;6.17;;
1404;SDS011;697;51.114;6.542;2023-05-07T01:08:21;6.87;;;6.17;;
1404;SDS011;697;51.114;6.542;2023-05-07T01:10:51;6.83;;;6.07;;
1404;SDS011;697;51.114;6.542;2023-05-07T01:13:18;6.53;;;5.93;;
1404;SDS011;697;51.114;6.542;2023-05-07T01:15:45;7.10;;;6.50;;
1404;SDS011;697;51.114;6.542;2023-05-07T01:18:12;7.40;;;6.37;;
1404;SDS011;697;51.114;6.542;2023-05-07T01:20:40;6.83;;;5.53;;
1404;SDS011;697;51.114;6.542;2023-05-07T01:23:08;6.40;;;5.80;;
1404;SDS011;697;51.114;6.542;2023-05-07T01:25:36;6.53;;;5.93;;
1404;SDS011;697;51.114;6.542;2023-05-07T01:28:03;7.10;;;6.40;;
1404;SDS011;697;51.114;6.542;2023-05-07T01:30:30;6.23;;;5.73;;
1404;SDS011;697;51.114;6.542;2023-05-07T01:33:00;6.70;;;6.10;;
1404;SDS011;697;51.114;6.542;2023-05-07T01:35:32;6.63;;;6.03;;
1404;SDS011;697;51.114;6.542;2023-05-07T01:38:03;7.27;;;6.60;;
1404;SDS011;697;51.114;6.542;2023-05-07T01:40:32;7.03;;;6.33;;
1404;SDS011;697;51.114;6.542;2023-05-07T01:43:00;7.03;;;6.43;;
1404;SDS011;697;51.114;6.542;2023-05-07T01:45:28;6.20;;;5.70;;
1404;SDS011;697;51.114;6.542;2023-05-07T01:47:56;6.10;;;5.50;;
1404;SDS011;697;51.114;6.542;2023-05-07T01:50:24;7.57;;;6.87;;
1404;SDS011;697;51.114;6.542;2023-05-07T01:52:52;5.80;;;5.30;;
1404;SDS011;697;51.114;6.542;2023-05-07T01:55:18;5.40;;;5.00;;
1404;SDS011;697;51.114;6.542;2023-05-07T01:57:46;5.90;;;5.30;;
1404;SDS011;697;51.114;6.542;2023-05-07T02:00:13;6.30;;;5.70;;
1404;SDS011;697;51.114;6.542;2023-05-07T02:02:40;7.80;;;5.97;;
1404;SDS011;697;51.114;6.542;2023-05-07T02:05:07;6.83;;;5.80;;
1404;SDS011;697;51.114;6.542;2023-05-07T02:07:35;7.43;;;6.00;;
1404;SDS011;697;51.114;6.542;2023-05-07T02:10:02;5.93;;;5.43;;
1404;SDS011;697;51.114;6.542;2023-05-07T02:12:29;6.10;;;5.60;;
1404;SDS011;697;51.114;6.542;2023-05-07T02:14:57;6.90;;;6.30;;
1404;SDS011;697;51.114;6.542;2023-05-07T02:17:23;6.47;;;5.67;;
1404;SDS011;697;51.114;6.542;2023-05-07T02:19:50;7.17;;;6.57;;
1404;SDS011;697;51.114;6.542;2023-05-07T02:22:17;8.23;;;7.43;;
1404;SDS011;697;51.114;6.542;2023-05-07T02:24:44;6.87;;;6.27;;
1404;SDS011;697;51.114;6.542;2023-05-07T02:27:10;7.73;;;6.87;;
1404;SDS011;697;51.114;6.542;2023-05-07T02:29:37;8.67;;;7.40;;
1404;SDS011;697;51.114;6.542;2023-05-07T02:32:05;7.90;;;7.10;;
1404;SDS011;697;51.114;6.542;2023-05-07T02:34:32;7.43;;;6.83;;
1404;SDS011;697;51.114;6.542;2023-05-07T02:36:58;7.67;;;6.80;;
1404;SDS011;697;51.114;6.542;2023-05-07T02:39:25;8.27;;;7.57;;
1404;SDS011;697;51.114;6.542;2023-05-07T02:41:52;10.53;;;6.97;;
1404;SDS011;697;51.114;6.542;2023-05-07T02:44:18;6.73;;;6.13;;
1404;SDS011;697;51.114;6.542;2023-05-07T02:46:45;9.10;;;7.70;;
1404;SDS011;697;51.114;6.542;2023-05-07T02:49:13;6.87;;;6.23;;
1404;SDS011;697;51.114;6.542;2023-05-07T02:51:40;7.77;;;6.97;;
1404;SDS011;697;51.114;6.542;2023-05-07T02:54:06;5.93;;;5.40;;
1404;SDS011;697;51.114;6.542;2023-05-07T02:56:33;7.43;;;6.57;;
1404;SDS011;697;51.114;6.542;2023-05-07T02:59:00;7.13;;;6.53;;
1404;SDS011;697;51.114;6.542;2023-05-07T03:01:27;6.73;;;6.17;;
1404;SDS011;697;51.114;6.542;2023-05-07T03:03:53;7.10;;;6.43;;
1404;SDS011;697;51.114;6.542;2023-05-07T03:06:21;6.60;;;6.00;;
1404;SDS011;697;51.114;6.542;2023-05-07T03:08:48;7.37;;;6.50;;
1404;SDS011;697;51.114;6.542;2023-05-07T03:11:15;7.00;;;6.17;;
1404;SDS011;697;51.114;6.542;2023-05-07T03:13:41;6.53;;;5.93;;
1404;SDS011;697;51.114;6.542;2023-05-07T03:16:08;6.37;;;5.80;;
1404;SDS011;697;51.114;6.542;2023-05-07T03:18:35;7.00;;;6.40;;
1404;SDS011;697;51.114;6.542;2023-05-07T03:21:02;5.60;;;5.20;;
1404;SDS011;697;51.114;6.542;2023-05-07T03:23:30;6.73;;;5.67;;
1404;SDS011;697;51.114;6.542;2023-05-07T03:25:56;5.70;;;5.30;;
1404;SDS011;697;51.114;6.542;2023-05-07T03:28:23;6.80;;;5.97;;
1404;SDS011;697;51.114;6.542;2023-05-07T03:30:49;6.43;;;5.70;;
1404;SDS011;697;51.114;6.542;2023-05-07T03:33:16;7.40;;;6.70;;
1404;SDS011;697;51.114;6.542;2023-05-07T03:35:43;6.70;;;5.73;;
1404;SDS011;697;51.114;6.542;2023-05-07T03:38:10;5.43;;;4.93;;
1404;SDS011;697;51.114;6.542;2023-05-07T03:40:38;6.33;;;5.73;;
1404;SDS011;697;51.114;6.542;2023-05-07T03:43:05;6.20;;;5.70;;
1404;SDS011;697;51.114;6.542;2023-05-07T03:45:31;7.17;;;5.23;;
1404;SDS011;697;51.114;6.542;2023-05-07T03:47:58;5.70;;;5.03;;
1404;SDS011;697;51.114;6.542;2023-05-07T03:50:25;8.43;;;5.50;;
1404;SDS011;697;51.114;6.542;2023-05-07T03:52:51;6.50;;;5.90;;
1404;SDS011;697;51.114;6.542;2023-05-07T03:55:18;6.90;;;6.30;;
1404;SDS011;697;51.114;6.542;2023-05-07T03:57:46;7.10;;;6.50;;
1404;SDS011;697;51.114;6.542;2023-05-07T04:00:13;7.00;;;6.30;;
1404;SDS011;697;51.114;6.542;2023-05-07T04:02:40;6.50;;;5.73;;
1404;SDS011;697;51.114;6.542;2023-05-07T04:05:07;7.37;;;6.60;;
1404;SDS011;697;51.114;6.542;2023-05-07T04:07:34;7.57;;;6.87;;
1404;SDS011;697;51.114;6.542;2023-05-07T04:10:01;8.40;;;5.47;;
1404;SDS011;697;51.114;6.542;2023-05-07T04:12:29;7.03;;;5.67;;
1404;SDS011;697;51.114;6.542;2023-05-07T04:14:57;6.27;;;5.70;;
1404;SDS011;697;51.114;6.542;2023-05-07T04:17:23;7.00;;;5.90;;
1404;SDS011;697;51.114;6.542;2023-05-07T04:19:50;5.97;;;5.47;;
1404;SDS011;697;51.114;6.542;2023-05-07T04:22:16;8.13;;;4.80;;
1404;SDS011;697;51.114;6.542;2023-05-07T04:24:43;6.10;;;5.53;;
1404;SDS011;697;51.114;6.542;2023-05-07T04:27:10;6.03;;;5.17;;
1404;SDS011;697;51.114;6.542;2023-05-07T04:29:37;5.90;;;4.50;;
1404;SDS011;697;51.114;6.542;2023-05-07T04:32:08;6.23;;;5.03;;
1404;SDS011;697;51.114;6.542;2023-05-07T04:34:35;6.53;;;5.60;;
1404;SDS011;697;51.114;6.542;2023-05-07T04:37:01;6.53;;;5.93;;
1404;SDS011;697;51.114;6.542;2023-05-07T04:39:28;6.00;;;5.50;;
1404;SDS011;697;51.114;6.542;2023-05-07T04:41:55;6.50;;;5.90;;
1404;SDS011;697;51.114;6.542;2023-05-07T04:44:21;6.10;;;5.50;;
1404;SDS011;697;51.114;6.542;2023-05-07T04:46:48;9.60;;;6.67;;
1404;SDS011;697;51.114;6.542;2023-05-07T04:49:16;6.30;;;5.70;;
1404;SDS011;697;51.114;6.542;2023-05-07T04:51:43;6.77;;;6.17;;
1404;SDS011;697;51.114;6.542;2023-05-07T04:54:10;8.73;;;7.87;;
1404;SDS011;697;51.114;6.542;2023-05-07T04:56:36;7.40;;;5.70;;
1404;SDS011;697;51.114;6.542;2023-05-07T04:59:03;6.27;;;5.67;;
1404;SDS011;697;51.114;6.542;2023-05-07T05:01:30;8.30;;;6.83;;
1404;SDS011;697;51.114;6.542;2023-05-07T05:03:57;7.03;;;5.57;;
1404;SDS011;697;51.114;6.542;2023-05-07T05:06:26;9.07;;;6.90;;
1404;SDS011;697;51.114;6.542;2023-05-07T05:08:53;6.80;;;6.20;;
1404;SDS011;697;51.114;6.542;2023-05-07T05:11:19;5.93;;;5.43;;
1404;SDS011;697;51.114;6.542;2023-05-07T05:13:46;6.73;;;6.23;;
1404;SDS011;697;51.114;6.542;2023-05-07T05:16:13;6.00;;;5.40;;
1404;SDS011;697;51.114;6.542;2023-05-07T05:18:40;5.40;;;4.90;;
1404;SDS011;697;51.114;6.542;2023-05-07T05:21:07;6.40;;;5.80;;
1404;SDS011;697;51.114;6.542;2023-05-07T05:23:35;5.60;;;5.10;;
1404;SDS011;697;51.114;6.542;2023-05-07T05:26:02;7.70;;;5.20;;
1404;SDS011;697;51.114;6.542;2023-05-07T05:28:28;5.77;;;5.23;;
1404;SDS011;697;51.114;6.542;2023-05-07T05:30:55;7.63;;;5.10;;
1404;SDS011;697;51.114;6.542;2023-05-07T05:33:22;7.30;;;4.80;;
1404;SDS011;697;51.114;6.542;2023-05-07T05:35:49;4.83;;;4.43;;
1404;SDS011;697;51.114;6.542;2023-05-07T05:38:16;6.30;;;5.23;;
1404;SDS011;697;51.114;6.542;2023-05-07T05:40:44;6.40;;;5.73;;
1404;SDS011;697;51.114;6.542;2023-05-07T05:43:10;5.40;;;5.00;;
1404;SDS011;697;51.114;6.542;2023-05-07T05:45:37;7.23;;;5.33;;
1404;SDS011;697;51.114;6.542;2023-05-07T05:48:04;4.77;;;4.40;;
1404;SDS011;697;51.114;6.542;2023-05-07T05:50:31;5.80;;;4.57;;
1404;SDS011;697;51.114;6.542;2023-05-07T05:52:58;7.37;;;4.80;;
1404;SDS011;697;51.114;6.542;2023-05-07T05:55:24;4.73;;;4.17;;
1404;SDS011;697;51.114;6.542;2023-05-07T05:57:52;5.23;;;4.63;;
1404;SDS011;697;51.114;6.542;2023-05-07T06:00:19;5.53;;;5.07;;
1404;SDS011;697;51.114;6.542;2023-05-07T06:02:47;5.93;;;5.33;;
1404;SDS011;697;51.114;6.542;2023-05-07T06:05:14;5.10;;;4.60;;
1404;SDS011;697;51.114;6.542;2023-05-07T06:07:41;5.07;;;4.67;;
1404;SDS011;697;51.114;6.542;2023-05-07T06:10:07;4.80;;;4.40;;
1404;SDS011;697;51.114;6.542;2023-05-07T06:12:34;3.97;;;3.60;;
1404;SDS011;697;51.114;6.542;2023-05-07T06:15:03;3.83;;;3.53;;
1404;SDS011;697;51.114;6.542;2023-05-07T06:17:30;5.57;;;3.97;;
1404;SDS011;697;51.114;6.542;2023-05-07T06:19:56;4.27;;;3.83;;
1404;SDS011;697;51.114;6.542;2023-05-07T06:22:23;8.73;;;4.13;;
1404;SDS011;697;51.114;6.542;2023-05-07T06:24:50;5.17;;;4.07;;
1404;SDS011;697;51.114;6.542;2023-05-07T06:27:16;4.93;;;3.90;;
1404;SDS011;697;51.114;6.542;2023-05-07T06:29:43;5.50;;;3.77;;
1404;SDS011;697;51.114;6.542;2023-05-07T06:32:12;5.00;;;4.47;;
1404;SDS011;697;51.114;6.542;2023-05-07T06:34:39;4.37;;;4.07;;
1404;SDS011;697;51.114;6.542;2023-05-07T06:37:07;5.30;;;4.20;;
1404;SDS011;697;51.114;6.542;2023-05-07T06:39:33;5.23;;;4.00;;
1404;SDS011;697;51.114;6.542;2023-05-07T06:42:00;5.60;;;4.00;;
1404;SDS011;697;51.114;6.542;2023-05-07T06:44:27;3.10;;;2.80;;
1404;SDS011;697;51.114;6.542;2023-05-07T06:46:54;6.23;;;3.37;;
1404;SDS011;697;51.114;6.542;2023-05-07T06:49:22;4.40;;;4.00;;
1404;SDS011;697;51.114;6.542;2023-05-07T06:51:48;7.13;;;4.00;;
1404;SDS011;697;51.114;6.542;2023-05-07T06:54:16;4.70;;;4.13;;
1404;SDS011;697;51.114;6.542;2023-05-07T06:56:42;5.10;;;4.60;;
1404;SDS011;697;51.114;6.542;2023-05-07T06:59:09;5.57;;;4.40;;
1404;SDS011;697;51.114;6.542;2023-05-07T07:01:36;6.43;;;4.20;;
1404;SDS011;697;51.114;6.542;2023-05-07T07:04:03;5.33;;;4.43;;
1404;SDS011;697;51.114;6.542;2023-05-07T07:06:31;4.10;;;3.70;;
1404;SDS011;697;51.114;6.542;2023-05-07T07:08:58;4.80;;;3.87;;
1404;SDS011;697;51.114;6.542;2023-05-07T07:11:25;3.80;;;3.40;;
1404;SDS011;697;51.114;6.542;2023-05-07T07:13:52;4.33;;;4.03;;
1404;SDS011;697;51.114;6.542;2023-05-07T07:16:19;4.73;;;4.27;;
1404;SDS011;697;51.114;6.542;2023-05-07T07:18:46;3.33;;;3.00;;
1404;SDS011;697;51.114;6.542;2023-05-07T07:21:13;4.30;;;3.20;;
1404;SDS011;697;51.114;6.542;2023-05-07T07:23:41;4.20;;;3.80;;
1404;SDS011;697;51.114;6.542;2023-05-07T07:26:07;3.70;;;3.40;;
1404;SDS011;697;51.114;6.542;2023-05-07T07:28:34;3.47;;;3.17;;
1404;SDS011;697;51.114;6.542;2023-05-07T07:31:01;5.23;;;4.00;;
1404;SDS011;697;51.114;6.542;2023-05-07T07:33:27;3.80;;;3.40;;
1404;SDS011;697;51.114;6.542;2023-05-07T07:35:55;5.30;;;4.23;;
1404;SDS011;697;51.114;6.542;2023-05-07T07:38:21;5.00;;;3.90;;
1404;SDS011;697;51.114;6.542;2023-05-07T07:40:49;3.83;;;3.40;;
1404;SDS011;697;51.114;6.542;2023-05-07T07:43:16;3.57;;;3.23;;
1404;SDS011;697;51.114;6.542;2023-05-07T07:45:43;4.13;;;3.63;;
1404;SDS011;697;51.114;6.542;2023-05-07T07:48:10;2.93;;;2.73;;
1404;SDS011;697;51.114;6.542;2023-05-07T07:50:37;2.70;;;2.50;;
1404;SDS011;697;51.114;6.542;2023-05-07T07:53:04;4.20;;;3.17;;
1404;SDS011;697;51.114;6.542;2023-05-07T07:55:31;2.47;;;2.10;;
1404;SDS011;697;51.114;6.542;2023-05-07T07:57:59;3.77;;;3.20;;
1404;SDS011;697;51.114;6.542;2023-05-07T08:00:25;3.90;;;2.60;;
1404;SDS011;697;51.114;6.542;2023-05-07T08:02:52;3.97;;;3.03;;
1404;SDS011;697;51.114;6.542;2023-05-07T08:05:19;2.90;;;2.70;;
1404;SDS011;697;51.114;6.542;2023-05-07T08:07:46;3.40;;;2.97;;
1404;SDS011;697;51.114;6.542;2023-05-07T08:10:16;3.50;;;3.00;;
1404;SDS011;697;51.114;6.542;2023-05-07T08:12:46;3.77;;;2.63;;
1404;SDS011;697;51.114;6.542;2023-05-07T08:15:14;4.70;;;3.40;;
1404;SDS011;697;51.114;6.542;2023-05-07T08:17:41;2.87;;;2.67;;
1404;SDS011;697;51.114;6.542;2023-05-07T08:20:08;3.63;;;3.33;;
1404;SDS011;697;51.114;6.542;2023-05-07T08:22:35;3.63;;;2.93;;
1404;SDS011;697;51.114;6.542;2023-05-07T08:25:02;3.17;;;2.87;;
1404;SDS011;697;51.114;6.542;2023-05-07T08:27:29;3.13;;;2.80;;
1404;SDS011;697;51.114;6.542;2023-05-07T08:29:56;3.87;;;3.13;;
1404;SDS011;697;51.114;6.542;2023-05-07T08:32:24;3.10;;;2.80;;
1404;SDS011;697;51.114;6.542;2023-05-07T08:34:51;2.87;;;2.57;;
1404;SDS011;697;51.114;6.542;2023-05-07T08:37:18;3.80;;;2.90;;
1404;SDS011;697;51.114;6.542;2023-05-07T08:39:45;2.90;;;2.47;;
1404;SDS011;697;51.114;6.542;2023-05-07T08:42:11;3.47;;;3.17;;
1404;SDS011;697;51.114;6.542;2023-05-07T08:44:41;3.07;;;2.87;;
1404;SDS011;697;51.114;6.542;2023-05-07T08:47:12;3.17;;;2.50;;
1404;SDS011;697;51.114;6.542;2023-05-07T08:49:40;4.53;;;2.97;;
1404;SDS011;697;51.114;6.542;2023-05-07T08:52:06;3.67;;;2.87;;
1404;SDS011;697;51.114;6.542;2023-05-07T08:54:33;5.43;;;3.17;;
1404;SDS011;697;51.114;6.542;2023-05-07T08:57:02;3.07;;;2.40;;
1404;SDS011;697;51.114;6.542;2023-05-07T08:59:29;5.83;;;3.00;;
1404;SDS011;697;51.114;6.542;2023-05-07T09:01:56;2.87;;;2.53;;
1404;SDS011;697;51.114;6.542;2023-05-07T09:04:22;10.77;;;2.47;;
1404;SDS011;697;51.114;6.542;2023-05-07T09:06:50;2.93;;;1.90;;
1404;SDS011;697;51.114;6.542;2023-05-07T09:09:17;2.27;;;1.87;;
1404;SDS011;697;51.114;6.542;2023-05-07T09:11:44;3.27;;;1.70;;
1404;SDS011;697;51.114;6.542;2023-05-07T09:14:11;4.00;;;2.37;;
1404;SDS011;697;51.114;6.542;2023-05-07T09:16:38;2.33;;;2.00;;
1404;SDS011;697;51.114;6.542;2023-05-07T09:19:04;2.10;;;1.90;;
1404;SDS011;697;51.114;6.542;2023-05-07T09:21:31;3.33;;;1.87;;
1404;SDS011;697;51.114;6.542;2023-05-07T09:23:59;4.40;;;2.47;;
1404;SDS011;697;51.114;6.542;2023-05-07T09:26:26;4.47;;;2.17;;
1404;SDS011;697;51.114;6.542;2023-05-07T09:28:53;2.13;;;2.03;;
1404;SDS011;697;51.114;6.542;2023-05-07T09:31:20;2.13;;;1.60;;
1404;SDS011;697;51.114;6.542;2023-05-07T09:33:48;3.10;;;1.97;;
1404;SDS011;697;51.114;6.542;2023-05-07T09:36:15;1.60;;;1.43;;
1404;SDS011;697;51.114;6.542;2023-05-07T09:38:42;3.40;;;1.07;;
1404;SDS011;697;51.114;6.542;2023-05-07T09:41:10;1.60;;;1.40;;
1404;SDS011;697;51.114;6.542;2023-05-07T09:43:39;5.37;;;1.50;;
1404;SDS011;697;51.114;6.542;2023-05-07T09:46:06;4.70;;;1.90;;
1404;SDS011;697;51.114;6.542;2023-05-07T09:48:35;2.23;;;1.43;;
1404;SDS011;697;51.114;6.542;2023-05-07T09:51:06;4.57;;;2.10;;
1404;SDS011;697;51.114;6.542;2023-05-07T09:53:41;2.93;;;1.40;;
1404;SDS011;697;51.114;6.542;2023-05-07T09:56:12;2.87;;;1.47;;
1404;SDS011;697;51.114;6.542;2023-05-07T09:58:41;1.37;;;1.20;;
1404;SDS011;697;51.114;6.542;2023-05-07T10:01:08;1.77;;;1.13;;
1404;SDS011;697;51.114;6.542;2023-05-07T10:03:36;1.60;;;1.50;;
1404;SDS011;697;51.114;6.542;2023-05-07T10:06:06;1.87;;;1.10;;
1404;SDS011;697;51.114;6.542;2023-05-07T10:08:34;2.87;;;1.70;;
1404;SDS011;697;51.114;6.542;2023-05-07T10:11:01;3.53;;;1.30;;
1404;SDS011;697;51.114;6.542;2023-05-07T10:13:31;1.77;;;0.97;;
1404;SDS011;697;51.114;6.542;2023-05-07T10:15:59;2.43;;;1.23;;
1404;SDS011;697;51.114;6.542;2023-05-07T10:18:27;4.00;;;1.33;;
1404;SDS011;697;51.114;6.542;2023-05-07T10:20:58;1.73;;;1.23;;
1404;SDS011;697;51.114;6.542;2023-05-07T10:23:30;3.77;;;1.27;;
1404;SDS011;697;51.114;6.542;2023-05-07T10:25:58;1.50;;;1.20;;
1404;SDS011;697;51.114;6.542;2023-05-07T10:28:27;3.53;;;1.40;;
1404;SDS011;697;51.114;6.542;2023-05-07T10:31:01;10.77;;;1.90;;
1404;SDS011;697;51.114;6.542;2023-05-07T10:33:37;14.10;;;2.47;;
1404;SDS011;697;51.114;6.542;2023-05-07T10:36:06;5.27;;;1.83;;
1404;SDS011;697;51.114;6.542;2023-05-07T10:38:33;1.63;;;1.43;;
1404;SDS011;697;51.114;6.542;2023-05-07T10:41:00;1.57;;;1.43;;
1404;SDS011;697;51.114;6.542;2023-05-07T10:43:38;1.43;;;1.27;;
1404;SDS011;697;51.114;6.542;2023-05-07T10:46:11;3.20;;;1.60;;
1404;SDS011;697;51.114;6.542;2023-05-07T10:51:36;6.27;;;1.43;;
1404;SDS011;697;51.114;6.542;2023-05-07T10:54:22;1.70;;;1.20;;
1404;SDS011;697;51.114;6.542;2023-05-07T10:56:49;1.30;;;1.20;;
1404;SDS011;697;51.114;6.542;2023-05-07T11:02:08;1.20;;;1.10;;
1404;SDS011;697;51.114;6.542;2023-05-07T11:04:36;1.77;;;1.17;;
1404;SDS011;697;51.114;6.542;2023-05-07T11:10:02;3.37;;;1.03;;
1404;SDS011;697;51.114;6.542;2023-05-07T11:15:35;2.47;;;1.43;;
1404;SDS011;697;51.114;6.542;2023-05-07T11:18:05;1.07;;;1.00;;
1404;SDS011;697;51.114;6.542;2023-05-07T11:20:48;1.43;;;1.00;;
1404;SDS011;697;51.114;6.542;2023-05-07T11:26:41;1.00;;;0.90;;
1404;SDS011;697;51.114;6.542;2023-05-07T11:29:10;1.37;;;1.10;;
1404;SDS011;697;51.114;6.542;2023-05-07T11:31:38;2.67;;;1.50;;
1404;SDS011;697;51.114;6.542;2023-05-07T11:34:06;1.70;;;1.40;;
1404;SDS011;697;51.114;6.542;2023-05-07T11:36:33;1.90;;;1.33;;
1404;SDS011;697;51.114;6.542;2023-05-07T11:39:00;1.50;;;1.40;;
1404;SDS011;697;51.114;6.542;2023-05-07T11:41:33;1.73;;;1.23;;
1404;SDS011;697;51.114;6.542;2023-05-07T11:44:00;2.17;;;1.30;;
1404;SDS011;697;51.114;6.542;2023-05-07T11:46:27;1.97;;;1.40;;
1404;SDS011;697;51.114;6.542;2023-05-07T11:48:55;1.27;;;1.10;;
1404;SDS011;697;51.114;6.542;2023-05-07T11:51:24;2.10;;;1.40;;
1404;SDS011;697;51.114;6.542;2023-05-07T11:53:54;2.57;;;1.30;;
1404;SDS011;697;51.114;6.542;2023-05-07T11:56:21;2.87;;;1.73;;
1404;SDS011;697;51.114;6.542;2023-05-07T11:58:48;2.20;;;1.73;;
1404;SDS011;697;51.114;6.542;2023-05-07T12:01:16;1.70;;;1.57;;
1404;SDS011;697;51.114;6.542;2023-05-07T12:03:44;1.50;;;1.40;;
1404;SDS011;697;51.114;6.542;2023-05-07T12:06:12;1.73;;;1.37;;
1404;SDS011;697;51.114;6.542;2023-05-07T12:08:42;3.37;;;1.73;;
1404;SDS011;697;51.114;6.542;2023-05-07T12:11:10;3.00;;;1.20;;
1404;SDS011;697;51.114;6.542;2023-05-07T12:13:41;1.57;;;1.47;;
1404;SDS011;697;51.114;6.542;2023-05-07T12:16:07;1.77;;;1.57;;
1404;SDS011;697;51.114;6.542;2023-05-07T12:18:35;2.53;;;1.80;;
1404;SDS011;697;51.114;6.542;2023-05-07T12:21:03;6.00;;;1.87;;
1404;SDS011;697;51.114;6.542;2023-05-07T12:23:31;3.20;;;1.70;;
1404;SDS011;697;51.114;6.542;2023-05-07T12:25:59;3.57;;;1.50;;
1404;SDS011;697;51.114;6.542;2023-05-07T12:28:26;3.13;;;1.37;;
1404;SDS011;697;51.114;6.542;2023-05-07T12:30:53;1.53;;;1.43;;
1404;SDS011;697;51.114;6.542;2023-05-07T12:33:23;1.97;;;1.40;;
1404;SDS011;697;51.114;6.542;2023-05-07T12:35:52;4.03;;;1.97;;
1404;SDS011;697;51.114;6.542;2023-05-07T12:38:20;1.83;;;1.60;;
1404;SDS011;697;51.114;6.542;2023-05-07T12:40:47;1.93;;;1.60;;
1404;SDS011;697;51.114;6.542;2023-05-07T12:43:17;1.90;;;1.70;;
1404;SDS011;697;51.114;6.542;2023-05-07T12:45:45;2.60;;;1.60;;
1404;SDS011;697;51.114;6.542;2023-05-07T12:48:13;3.37;;;1.60;;
1404;SDS011;697;51.114;6.542;2023-05-07T12:50:40;3.03;;;1.87;;
1404;SDS011;697;51.114;6.542;2023-05-07T12:53:07;2.47;;;1.67;;
1404;SDS011;697;51.114;6.542;2023-05-07T12:55:43;3.50;;;1.67;;
1404;SDS011;697;51.114;6.542;2023-05-07T12:58:19;2.13;;;1.40;;
1404;SDS011;697;51.114;6.542;2023-05-07T13:00:47;2.30;;;1.67;;
1404;SDS011;697;51.114;6.542;2023-05-07T13:03:22;2.17;;;1.57;;
1404;SDS011;697;51.114;6.542;2023-05-07T13:05:50;3.53;;;2.07;;
1404;SDS011;697;51.114;6.542;2023-05-07T13:08:23;5.27;;;2.30;;
1404;SDS011;697;51.114;6.542;2023-05-07T13:10:51;5.23;;;3.60;;
1404;SDS011;697;51.114;6.542;2023-05-07T13:13:19;4.10;;;2.43;;
1404;SDS011;697;51.114;6.542;2023-05-07T13:15:46;3.47;;;1.90;;
1404;SDS011;697;51.114;6.542;2023-05-07T13:18:13;3.10;;;2.00;;
1404;SDS011;697;51.114;6.542;2023-05-07T13:20:39;9.17;;;2.27;;
1404;SDS011;697;51.114;6.542;2023-05-07T13:23:06;2.30;;;2.10;;
1404;SDS011;697;51.114;6.542;2023-05-07T13:25:33;3.07;;;1.80;;
1404;SDS011;697;51.114;6.542;2023-05-07T13:28:00;2.20;;;2.00;;
1404;SDS011;697;51.114;6.542;2023-05-07T13:30:29;2.70;;;1.97;;
1404;SDS011;697;51.114;6.542;2023-05-07T13:32:56;2.83;;;1.80;;
1404;SDS011;697;51.114;6.542;2023-05-07T13:35:23;4.33;;;2.20;;
1404;SDS011;697;51.114;6.542;2023-05-07T13:37:49;3.70;;;2.97;;
1404;SDS011;697;51.114;6.542;2023-05-07T13:40:17;3.37;;;1.90;;
1404;SDS011;697;51.114;6.542;2023-05-07T13:42:44;3.10;;;1.80;;
1404;SDS011;697;51.114;6.542;2023-05-07T13:45:11;5.00;;;2.10;;
1404;SDS011;697;51.114;6.542;2023-05-07T13:47:40;2.27;;;1.83;;
1404;SDS011;697;51.114;6.542;2023-05-07T13:50:07;1.53;;;1.43;;
1404;SDS011;697;51.114;6.542;2023-05-07T13:52:36;2.10;;;1.67;;
1404;SDS011;697;51.114;6.542;2023-05-07T13:55:03;4.80;;;2.00;;
1404;SDS011;697;51.114;6.542;2023-05-07T13:57:30;8.07;;;3.00;;
1404;SDS011;697;51.114;6.542;2023-05-07T13:59:57;13.10;;;2.63;;
1404;SDS011;697;51.114;6.542;2023-05-07T14:02:24;20.30;;;3.00;;
1404;SDS011;697;51.114;6.542;2023-05-07T14:04:52;6.60;;;2.00;;
1404;SDS011;697;51.114;6.542;2023-05-07T14:07:18;10.87;;;2.20;;
1404;SDS011;697;51.114;6.542;2023-05-07T14:09:45;9.27;;;1.97;;
1404;SDS011;697;51.114;6.542;2023-05-07T14:12:12;7.00;;;2.00;;
1404;SDS011;697;51.114;6.542;2023-05-07T14:14:38;7.93;;;2.47;;
1404;SDS011;697;51.114;6.542;2023-05-07T14:17:05;9.13;;;1.97;;
1404;SDS011;697;51.114;6.542;2023-05-07T14:19:33;5.33;;;2.10;;
1404;SDS011;697;51.114;6.542;2023-05-07T14:22:01;2.67;;;2.03;;
1404;SDS011;697;51.114;6.542;2023-05-07T14:24:28;3.37;;;2.07;;
1404;SDS011;697;51.114;6.542;2023-05-07T14:26:55;2.33;;;1.73;;
1404;SDS011;697;51.114;6.542;2023-05-07T14:29:22;6.13;;;2.43;;
1404;SDS011;697;51.114;6.542;2023-05-07T14:31:49;3.77;;;2.17;;
1404;SDS011;697;51.114;6.542;2023-05-07T14:34:15;3.20;;;2.70;;
1404;SDS011;697;51.114;6.542;2023-05-07T14:36:42;4.43;;;2.97;;
1404;SDS011;697;51.114;6.542;2023-05-07T14:39:10;7.70;;;3.10;;
1404;SDS011;697;51.114;6.542;2023-05-07T14:41:37;4.17;;;2.50;;
1404;SDS011;697;51.114;6.542;2023-05-07T14:44:04;5.87;;;3.30;;
1404;SDS011;697;51.114;6.542;2023-05-07T14:46:30;3.97;;;2.67;;
1404;SDS011;697;51.114;6.542;2023-05-07T14:48:57;4.17;;;2.70;;
1404;SDS011;697;51.114;6.542;2023-05-07T14:51:24;2.73;;;2.50;;
1404;SDS011;697;51.114;6.542;2023-05-07T14:53:53;3.60;;;2.50;;
1404;SDS011;697;51.114;6.542;2023-05-07T14:56:21;7.30;;;3.73;;
1404;SDS011;697;51.114;6.542;2023-05-07T14:58:47;4.13;;;2.80;;
1404;SDS011;697;51.114;6.542;2023-05-07T15:01:14;6.03;;;2.97;;
1404;SDS011;697;51.114;6.542;2023-05-07T15:03:41;5.50;;;3.27;;
1404;SDS011;697;51.114;6.542;2023-05-07T15:06:08;3.93;;;3.23;;
1404;SDS011;697;51.114;6.542;2023-05-07T15:08:35;3.37;;;2.53;;
1404;SDS011;697;51.114;6.542;2023-05-07T15:11:02;7.93;;;4.10;;
1404;SDS011;697;51.114;6.542;2023-05-07T15:13:30;4.60;;;3.50;;
1404;SDS011;697;51.114;6.542;2023-05-07T15:15:56;6.83;;;3.37;;
1404;SDS011;697;51.114;6.542;2023-05-07T15:18:23;5.83;;;3.30;;
1404;SDS011;697;51.114;6.542;2023-05-07T15:20:50;3.40;;;3.10;;
1404;SDS011;697;51.114;6.542;2023-05-07T15:23:17;8.03;;;4.40;;
1404;SDS011;697;51.114;6.542;2023-05-07T15:25:43;8.27;;;3.77;;
1404;SDS011;697;51.114;6.542;2023-05-07T15:28:10;4.03;;;2.93;;
1404;SDS011;697;51.114;6.542;2023-05-07T15:30:38;6.77;;;3.17;;
1404;SDS011;697;51.114;6.542;2023-05-07T15:33:05;2.87;;;2.40;;
1404;SDS011;697;51.114;6.542;2023-05-07T15:35:31;2.57;;;2.30;;
1404;SDS011;697;51.114;6.542;2023-05-07T15:37:58;3.43;;;2.40;;
1404;SDS011;697;51.114;6.542;2023-05-07T15:40:25;2.80;;;2.37;;
1404;SDS011;697;51.114;6.542;2023-05-07T15:42:53;4.70;;;3.47;;
1404;SDS011;697;51.114;6.542;2023-05-07T15:45:21;5.50;;;3.07;;
1404;SDS011;697;51.114;6.542;2023-05-07T15:47:49;2.77;;;2.57;;